Time;durP1;ratioP1;P1;durP2;ratioP2;P2;SDS_P1;SDS_P2;PMS_P1;PMS_P2;Temp;Humidity;BMP_temperature;BMP_pressure;BME280_temperature;BME280_humidity;BME280_pressure;Samples;Min_cycle;Max_cycle;Signal;HPM_P1;HPM_P2
2024/03/03 00:00:40;;;;;;;14.23;9.25;;;;;;;5.30;87.17;94412.97;6305190;22;20468;-79
2024/03/03 00:03:05;;;;;;;12.27;8.82;;;;;;;5.30;87.53;94418.13;6305555;22;20006;-78
2024/03/03 00:05:31;;;;;;;14.40;9.55;;;;;;;5.41;86.77;94415.63;6252026;22;20027;-79
2024/03/03 00:07:56;;;;;;;13.48;8.65;;;;;;;5.24;87.13;94403.09;6227100;22;20412;-81
2024/03/03 00:10:22;;;;;;;14.85;9.75;;;;;;;5.26;87.20;94409.75;6278179;22;20011;-81
2024/03/03 00:12:47;;;;;;;13.70;9.40;;;;;;;5.44;86.53;94415.41;6278084;22;20011;-79
2024/03/03 00:15:12;;;;;;;13.75;9.70;;;;;;;5.13;86.94;94403.81;6252442;22;20014;-81
2024/03/03 00:17:38;;;;;;;14.73;9.27;;;;;;;5.27;86.98;94410.59;6278069;22;20007;-81
2024/03/03 00:20:07;;;;;;;14.43;9.65;;;;;;;5.10;87.27;94409.19;6305797;22;20033;-79
2024/03/03 00:22:32;;;;;;;15.63;9.75;;;;;;;4.92;87.23;94388.06;6253770;22;20003;-81
2024/03/03 00:24:58;;;;;;;16.58;9.90;;;;;;;4.90;87.75;94385.59;6252349;22;20037;-81
2024/03/03 00:27:25;;;;;;;16.58;9.88;;;;;;;4.82;87.40;94372.41;6252419;22;20475;-81
2024/03/03 00:29:50;;;;;;;15.02;8.95;;;;;;;4.92;88.01;94388.06;6253147;22;20015;-81
2024/03/03 00:32:16;;;;;;;14.45;9.75;;;;;;;4.91;87.82;94392.38;6252447;22;20003;-81
2024/03/03 00:34:44;;;;;;;16.77;11.07;;;;;;;4.72;88.18;94383.44;6277774;22;20407;-81
2024/03/03 00:37:10;;;;;;;15.65;9.98;;;;;;;4.71;88.70;94380.03;6252143;22;20011;-78
2024/03/03 00:39:39;;;;;;;15.57;10.48;;;;;;;4.68;89.16;94380.22;6278249;22;20018;-81
2024/03/03 00:42:05;;;;;;;18.17;10.82;;;;;;;4.46;90.06;94370.56;6227388;22;20454;-80
2024/03/03 00:44:30;;;;;;;18.90;10.90;;;;;;;4.62;89.69;94380.63;6252180;22;20011;-81
2024/03/03 00:46:56;;;;;;;15.20;10.60;;;;;;;4.55;89.55;94375.06;6252435;22;20000;-78
2024/03/03 00:49:21;;;;;;;15.65;10.00;;;;;;;4.42;89.38;94354.47;6278003;22;20018;-81
2024/03/03 00:51:47;;;;;;;18.27;10.77;;;;;;;4.57;89.63;94383.53;6252446;22;20057;-81
2024/03/03 00:54:12;;;;;;;16.08;10.40;;;;;;;4.50;89.99;94386.59;6252170;22;20011;-81
2024/03/03 00:56:38;;;;;;;18.77;10.68;;;;;;;4.50;89.76;94366.84;6277620;22;20003;-81
2024/03/03 00:59:03;;;;;;;17.42;9.75;;;;;;;4.61;89.62;94381.56;6252236;22;20019;-81
2024/03/03 01:01:29;;;;;;;19.92;11.27;;;;;;;4.50;90.08;94381.44;6277709;22;20003;-81
2024/03/03 01:03:55;;;;;;;18.60;10.70;;;;;;;4.36;90.76;94370.31;6277281;22;20045;-80
2024/03/03 01:06:20;;;;;;;16.30;10.57;;;;;;;4.44;90.27;94373.22;6252013;22;20003;-80
2024/03/03 01:08:45;;;;;;;19.08;11.20;;;;;;;4.29;90.98;94375.94;6277759;22;20018;-81
2024/03/03 01:11:11;;;;;;;17.58;10.15;;;;;;;4.33;91.14;94383.38;6277537;22;20007;-81
2024/03/03 01:13:37;;;;;;;17.25;10.85;;;;;;;4.11;91.15;94353.09;6277399;22;20526;-81
2024/03/03 01:16:03;;;;;;;17.48;10.93;;;;;;;4.28;91.14;94379.47;6304834;22;20069;-81
2024/03/03 01:18:29;;;;;;;17.35;10.50;;;;;;;4.34;90.26;94382.44;6226895;22;20003;-81
2024/03/03 01:20:55;;;;;;;17.55;10.50;;;;;;;4.25;90.56;94365.88;6252181;22;20007;-81
2024/03/03 01:23:21;;;;;;;20.60;11.20;;;;;;;4.34;90.15;94379.06;6226559;22;20006;-81
2024/03/03 01:25:48;;;;;;;18.40;10.85;;;;;;;4.30;89.83;94364.75;6251614;22;20345;-81
2024/03/03 01:28:13;;;;;;;15.77;9.45;;;;;;;4.39;89.33;94364.97;6227378;22;20058;-81
2024/03/03 01:30:39;;;;;;;16.30;10.18;;;;;;;4.25;89.26;94350.44;6251912;22;20088;-78
2024/03/03 01:33:04;;;;;;;14.88;9.75;;;;;;;4.29;89.57;94374.22;6304540;22;20056;-78
2024/03/03 01:35:30;;;;;;;17.77;10.45;;;;;;;4.12;89.85;94356.47;6277526;22;20442;-78
2024/03/03 01:37:55;;;;;;;16.70;10.23;;;;;;;4.20;89.21;94354.22;6252039;22;20010;-81
2024/03/03 01:40:21;;;;;;;16.17;10.43;;;;;;;4.22;89.05;94360.09;6251951;22;20015;-80
2024/03/03 01:42:46;;;;;;;15.52;9.85;;;;;;;4.08;89.94;94363.56;6226552;22;20003;-80
2024/03/03 01:45:21;;;;;;;15.20;9.80;;;;;;;3.92;90.40;94366.28;6252079;22;20011;-81
2024/03/03 01:47:47;;;;;;;15.93;10.52;;;;;;;3.92;91.11;94358.59;6252656;22;20493;-80
2024/03/03 01:50:12;;;;;;;15.15;9.27;;;;;;;3.94;90.65;94363.63;6277629;22;20014;-81
2024/03/03 01:52:38;;;;;;;15.02;9.82;;;;;;;3.74;91.90;94370.03;6277241;22;19999;-80
2024/03/03 01:55:03;;;;;;;17.33;10.60;;;;;;;3.73;92.00;94358.94;6252080;22;20026;-80
2024/03/03 01:57:29;;;;;;;15.50;10.30;;;;;;;3.77;92.33;94365.53;6251885;22;20015;-80
2024/03/03 01:59:54;;;;;;;16.25;10.13;;;;;;;3.79;92.10;94363.69;6251872;22;20026;-81
2024/03/03 02:02:20;;;;;;;18.63;10.30;;;;;;;3.61;92.39;94346.03;6252731;22;19999;-81
2024/03/03 02:04:45;;;;;;;14.30;9.63;;;;;;;3.69;92.47;94366.94;6253661;22;20015;-81
2024/03/03 02:07:11;;;;;;;16.95;9.48;;;;;;;3.59;93.04;94353.84;6253752;22;20026;-80
2024/03/03 02:09:36;;;;;;;15.52;10.02;;;;;;;3.61;93.28;94367.41;6253819;22;20041;-81
2024/03/03 02:12:02;;;;;;;17.02;9.95;;;;;;;3.68;93.30;94366.13;6306439;22;20003;-81
2024/03/03 02:14:28;;;;;;;15.57;9.40;;;;;;;3.43;93.00;94333.44;6253874;22;20034;-81
2024/03/03 02:16:53;;;;;;;17.75;10.25;;;;;;;3.57;93.69;94366.78;6253932;22;20453;-81
2024/03/03 02:19:19;;;;;;;15.00;9.93;;;;;;;3.66;93.59;94369.69;6306246;22;20015;-80
2024/03/03 02:21:45;;;;;;;17.58;9.90;;;;;;;3.55;93.95;94360.91;6279036;22;20503;-80
2024/03/03 02:24:10;;;;;;;17.05;10.45;;;;;;;3.48;93.87;94357.09;6278990;22;20003;-80
2024/03/03 02:26:36;;;;;;;17.50;9.68;;;;;;;3.59;93.98;94358.97;6279163;22;20025;-81
2024/03/03 02:29:03;;;;;;;13.95;9.50;;;;;;;3.63;93.23;94370.72;6253671;22;20018;-80
2024/03/03 02:31:32;;;;;;;15.13;9.75;;;;;;;3.47;93.53;94364.88;6279250;22;20011;-80
2024/03/03 02:33:57;;;;;;;14.77;9.57;;;;;;;3.41;94.00;94373.78;6253572;22;20034;-81
2024/03/03 02:36:23;;;;;;;16.30;9.82;;;;;;;3.33;94.99;94378.56;6278976;22;20018;-81
2024/03/03 02:38:51;;;;;;;14.75;9.55;;;;;;;3.36;94.60;94370.69;6253343;22;20100;-81
2024/03/03 02:41:17;;;;;;;15.57;9.05;;;;;;;3.40;93.94;94363.59;6278961;22;20072;-81
2024/03/03 02:43:42;;;;;;;14.75;10.13;;;;;;;3.35;94.51;94379.31;6253811;22;20007;-80
2024/03/03 02:46:07;;;;;;;13.95;9.30;;;;;;;3.38;94.75;94373.97;6253438;22;20003;-81
2024/03/03 02:48:33;;;;;;;13.50;8.40;;;;;;;3.35;94.80;94371.59;6227990;22;20011;-80
2024/03/03 02:50:58;;;;;;;13.88;8.70;;;;;;;3.40;95.01;94379.84;6253107;22;20399;-80
2024/03/03 02:53:24;;;;;;;12.40;8.45;;;;;;;3.34;94.30;94375.06;6278768;22;20003;-81
2024/03/03 02:55:49;;;;;;;12.55;8.13;;;;;;;3.43;94.06;94377.09;6278710;22;20007;-80
2024/03/03 02:58:14;;;;;;;14.00;8.65;;;;;;;3.30;94.22;94382.16;6278668;22;20003;-81
2024/03/03 03:00:40;;;;;;;12.90;8.45;;;;;;;3.33;93.99;94386.28;6227999;22;20007;-81
2024/03/03 03:03:05;;;;;;;13.13;8.75;;;;;;;3.26;94.79;94390.97;6253429;22;20036;-81
2024/03/03 03:05:31;;;;;;;16.98;9.75;;;;;;;3.27;94.89;94392.59;6227343;22;20015;-80
2024/03/03 03:07:57;;;;;;;12.32;7.95;;;;;;;3.09;95.21;94380.88;6305879;22;20026;-80
2024/03/03 03:10:22;;;;;;;12.05;8.18;;;;;;;3.28;94.67;94381.41;6253062;22;20087;-80
2024/03/03 03:12:48;;;;;;;15.73;9.10;;;;;;;3.25;94.77;94396.19;6253073;22;20426;-80
2024/03/03 03:15:13;;;;;;;12.77;8.65;;;;;;;3.27;94.56;94399.50;6278528;22;20015;-81
2024/03/03 03:17:39;;;;;;;14.60;8.63;;;;;;;3.22;94.47;94386.09;6278505;22;20026;-81
2024/03/03 03:20:05;;;;;;;12.93;8.00;;;;;;;3.33;93.63;94388.84;6253328;22;20011;-80
2024/03/03 03:22:30;;;;;;;13.85;8.20;;;;;;;3.25;94.05;94401.31;6253336;22;20030;-79
2024/03/03 03:24:56;;;;;;;12.20;8.05;;;;;;;3.19;94.10;94381.16;6227469;22;20007;-80
2024/03/03 03:27:21;;;;;;;11.10;7.43;;;;;;;3.21;93.89;94397.31;6252867;22;20357;-80
2024/03/03 03:29:47;;;;;;;10.70;7.22;;;;;;;3.17;94.00;94386.38;6252636;22;20015;-80
2024/03/03 03:32:12;;;;;;;10.73;7.00;;;;;;;3.20;93.73;94391.31;6252889;22;20010;-80
2024/03/03 03:34:38;;;;;;;12.60;7.65;;;;;;;3.23;93.63;94395.44;6278205;22;20022;-80
2024/03/03 03:37:04;;;;;;;11.13;7.68;;;;;;;3.36;91.98;94386.09;6278251;22;20475;-79
2024/03/03 03:39:29;;;;;;;8.90;6.10;;;;;;;3.46;91.80;94405.16;6252975;22;20007;-80
2024/03/03 03:41:55;;;;;;;10.25;6.45;;;;;;;3.34;91.90;94401.59;6278421;22;20027;-79
2024/03/03 03:44:20;;;;;;;9.32;6.85;;;;;;;3.38;91.52;94412.50;6278376;22;20022;-80
2024/03/03 03:46:46;;;;;;;11.52;7.07;;;;;;;3.31;91.75;94418.91;6227278;22;20359;-80
2024/03/03 03:49:12;;;;;;;10.73;6.72;;;;;;;3.24;91.01;94402.25;6252830;22;20011;-80
2024/03/03 03:51:38;;;;;;;11.07;6.65;;;;;;;3.39;90.83;94403.88;6252797;22;20005;-80
2024/03/03 03:54:04;;;;;;;9.35;6.75;;;;;;;3.49;90.80;94422.13;6227319;22;20043;-80
2024/03/03 03:56:30;;;;;;;10.50;7.00;;;;;;;3.24;91.44;94408.19;6252571;22;20003;-78
2024/03/03 03:58:55;;;;;;;10.20;6.50;;;;;;;3.26;91.77;94405.53;6278180;22;20018;-80
2024/03/03 04:01:21;;;;;;;8.95;6.38;;;;;;;3.28;92.40;94412.22;6252522;22;20003;-79
2024/03/03 04:03:47;;;;;;;9.38;6.00;;;;;;;3.22;92.71;94415.16;6278189;22;20012;-80
2024/03/03 04:06:12;;;;;;;8.90;6.30;;;;;;;3.42;92.23;94415.69;6305153;22;20019;-80
2024/03/03 04:08:37;;;;;;;11.02;6.78;;;;;;;3.31;92.03;94401.75;6252433;22;20011;-80
2024/03/03 04:11:03;;;;;;;8.80;5.43;;;;;;;3.36;91.84;94398.91;6278153;22;19995;-81
2024/03/03 04:13:30;;;;;;;8.85;6.03;;;;;;;3.32;91.86;94418.00;6278398;22;20394;-80
2024/03/03 04:15:56;;;;;;;9.13;6.30;;;;;;;3.21;92.27;94417.84;6278186;22;20133;-80
2024/03/03 04:18:21;;;;;;;9.23;6.00;;;;;;;3.09;92.50;94397.13;6277995;22;20030;-79
2024/03/03 04:20:47;;;;;;;8.52;5.82;;;;;;;3.36;91.99;94419.47;6252440;22;20009;-80
2024/03/03 04:23:13;;;;;;;9.13;6.25;;;;;;;3.39;91.73;94418.47;6305635;22;20070;-80
2024/03/03 04:25:38;;;;;;;8.02;5.68;;;;;;;3.40;91.46;94413.25;6305316;22;20007;-80
2024/03/03 04:28:04;;;;;;;7.85;5.85;;;;;;;3.38;91.19;94414.25;6277946;22;20010;-80
2024/03/03 04:30:30;;;;;;;8.88;6.25;;;;;;;3.31;91.21;94406.91;6252521;22;20082;-80
2024/03/03 04:32:55;;;;;;;7.68;5.13;;;;;;;3.26;91.08;94408.09;6252237;22;20011;-80
2024/03/03 04:35:21;;;;;;;8.13;5.32;;;;;;;3.48;90.77;94425.59;6226803;22;20065;-80
2024/03/03 04:37:46;;;;;;;9.88;5.90;;;;;;;3.33;91.05;94417.09;6252459;22;20048;-81
2024/03/03 04:40:12;;;;;;;8.05;6.03;;;;;;;3.42;91.15;94415.69;6252472;22;20015;-80
2024/03/03 04:42:37;;;;;;;7.95;5.60;;;;;;;3.39;90.41;94418.47;6226951;22;20007;-81
2024/03/03 04:45:04;;;;;;;8.25;5.60;;;;;;;3.47;90.16;94421.38;6252580;22;20015;-80
2024/03/03 04:47:29;;;;;;;6.95;5.75;;;;;;;3.33;90.64;94422.22;6305272;22;20045;-81
2024/03/03 04:49:55;;;;;;;7.50;5.50;;;;;;;3.29;90.59;94398.47;6252393;22;20015;-81
2024/03/03 04:52:20;;;;;;;7.75;5.20;;;;;;;3.28;90.68;94412.22;6252340;22;20007;-79
2024/03/03 04:54:46;;;;;;;8.35;5.57;;;;;;;3.36;90.81;94411.75;6305306;22;20021;-80
2024/03/03 04:57:11;;;;;;;8.57;6.05;;;;;;;3.21;90.82;94403.25;6252597;22;20607;-81
2024/03/03 04:59:36;;;;;;;7.88;5.43;;;;;;;3.13;91.31;94396.00;6277997;22;20015;-81
2024/03/03 05:02:03;;;;;;;6.57;4.90;;;;;;;3.19;91.62;94417.09;6252139;22;20000;-81
2024/03/03 05:04:35;;;;;;;9.57;5.57;;;;;;;3.22;91.61;94419.47;6278812;22;20058;-80
2024/03/03 05:07:01;;;;;;;7.40;5.22;;;;;;;3.30;90.86;94412.97;6253962;22;20015;-80
2024/03/03 05:09:48;;;;;;;6.90;5.10;;;;;;;3.30;90.87;94414.72;6311233;22;20015;-80
2024/03/03 05:12:38;;;;;;;6.65;4.78;;;;;;;3.37;90.39;94415.97;6314221;22;20009;-81
2024/03/03 05:15:04;;;;;;;7.60;4.80;;;;;;;3.43;90.07;94419.94;6261937;22;20023;-81
2024/03/03 05:17:30;;;;;;;7.70;4.68;;;;;;;3.10;90.14;94385.13;6304902;22;20010;-80
2024/03/03 05:19:55;;;;;;;7.78;5.20;;;;;;;3.23;89.36;94395.44;6305851;22;20018;-81
2024/03/03 05:22:21;;;;;;;7.80;4.85;;;;;;;3.34;89.71;94421.28;6304861;22;20004;-80
2024/03/03 05:24:46;;;;;;;6.47;4.63;;;;;;;3.27;89.91;94418.28;6277770;22;20012;-81
2024/03/03 05:27:12;;;;;;;6.22;4.68;;;;;;;3.29;89.75;94418.22;6277638;22;20353;-81
2024/03/03 05:29:37;;;;;;;6.32;4.47;;;;;;;3.30;89.61;94414.72;6252156;22;20007;-81
2024/03/03 05:32:03;;;;;;;7.90;4.05;;;;;;;3.47;89.91;94432.47;6278105;22;20327;-81
2024/03/03 05:34:28;;;;;;;5.65;4.30;;;;;;;3.43;89.36;94431.03;6305213;22;20008;-81
2024/03/03 05:36:53;;;;;;;6.15;4.38;;;;;;;3.42;89.49;94447.34;6252604;22;20041;-81
2024/03/03 05:39:19;;;;;;;7.10;4.68;;;;;;;3.22;89.63;94411.78;6307238;22;20080;-80
2024/03/03 05:41:44;;;;;;;8.05;4.97;;;;;;;3.34;90.03;94449.53;6279949;22;20003;-81
2024/03/03 05:44:10;;;;;;;7.05;4.80;;;;;;;3.39;89.04;94436.44;6280027;22;20559;-80
2024/03/03 05:46:38;;;;;;;6.18;4.10;;;;;;;3.17;89.65;94435.16;6306982;22;20026;-80
2024/03/03 05:49:04;;;;;;;6.32;4.07;;;;;;;3.30;89.80;94440.38;6279785;22;20011;-81
2024/03/03 05:51:29;;;;;;;6.72;4.47;;;;;;;3.25;90.03;94432.13;6228967;22;20397;-80
2024/03/03 05:53:55;;;;;;;7.13;4.43;;;;;;;3.40;89.54;94445.78;6279586;22;20018;-81
2024/03/03 05:56:20;;;;;;;5.60;3.90;;;;;;;3.38;89.49;94448.44;6279590;22;20015;-81
2024/03/03 05:58:46;;;;;;;6.07;4.18;;;;;;;3.41;89.21;94444.88;6253812;22;20007;-81
2024/03/03 06:01:11;;;;;;;7.18;4.63;;;;;;;3.33;89.38;94450.47;6253979;22;20030;-81
2024/03/03 06:03:37;;;;;;;7.80;4.78;;;;;;;3.29;89.05;94423.34;6253824;22;20065;-79
2024/03/03 06:06:03;;;;;;;7.20;4.22;;;;;;;3.31;89.25;94460.00;6253240;22;20045;-81
2024/03/03 06:08:28;;;;;;;5.72;4.07;;;;;;;3.31;89.14;94452.28;6279326;22;20479;-81
2024/03/03 06:10:54;;;;;;;7.10;4.68;;;;;;;3.36;89.75;94453.66;6306463;22;20421;-81
2024/03/03 06:13:20;;;;;;;9.80;4.55;;;;;;;3.36;89.45;94453.66;6254350;22;20003;-81
2024/03/03 06:15:47;;;;;;;7.65;4.95;;;;;;;3.40;89.46;94451.75;6253593;22;20514;-81
2024/03/03 06:18:13;;;;;;;7.43;4.22;;;;;;;3.50;88.55;94450.25;6229301;22;20448;-81
2024/03/03 06:20:38;;;;;;;6.32;3.95;;;;;;;3.54;89.25;94456.88;6253877;22;20007;-81
2024/03/03 06:23:04;;;;;;;6.00;4.28;;;;;;;3.46;88.96;94450.56;6279377;22;20014;-81
2024/03/03 06:25:31;;;;;;;6.28;4.32;;;;;;;3.49;89.35;94458.91;6307062;22;20499;-81
2024/03/03 06:27:57;;;;;;;5.72;4.20;;;;;;;3.52;88.60;94445.03;6279972;22;20011;-81
2024/03/03 06:30:22;;;;;;;5.57;3.90;;;;;;;3.55;89.24;94461.09;6254306;22;20007;-80
2024/03/03 06:32:47;;;;;;;6.55;4.22;;;;;;;3.67;88.35;94467.22;6228419;22;20437;-81
2024/03/03 06:35:13;;;;;;;5.78;4.35;;;;;;;3.74;88.04;94465.94;6279102;22;20015;-81
2024/03/03 06:37:38;;;;;;;5.93;4.40;;;;;;;3.68;88.54;94460.34;6279213;22;20013;-81
2024/03/03 06:40:05;;;;;;;6.78;4.30;;;;;;;3.78;88.53;94467.38;6254311;22;20022;-81
2024/03/03 06:42:33;;;;;;;6.07;4.05;;;;;;;3.84;88.21;94468.75;6229141;22;20041;-81
2024/03/03 06:44:59;;;;;;;5.63;4.45;;;;;;;3.90;88.23;94457.25;6254275;22;20088;-80
2024/03/03 06:47:26;;;;;;;5.72;3.90;;;;;;;4.10;87.62;94466.31;6253800;22;20384;-81
2024/03/03 06:49:54;;;;;;;6.28;4.18;;;;;;;4.19;87.54;94468.28;6279305;22;20015;-82
2024/03/03 06:52:20;;;;;;;6.53;4.22;;;;;;;4.00;88.08;94440.34;6306367;22;20014;-81
2024/03/03 06:54:45;;;;;;;6.80;4.43;;;;;;;4.24;87.37;94463.69;6306668;22;20205;-81
2024/03/03 06:57:10;;;;;;;6.20;4.45;;;;;;;4.38;87.23;94463.63;6253899;22;20057;-82
2024/03/03 06:59:38;;;;;;;6.93;4.45;;;;;;;4.45;87.62;94466.63;6228184;22;20037;-82
2024/03/03 07:02:03;;;;;;;6.25;4.28;;;;;;;4.70;87.37;94465.88;6279433;22;20003;-81
2024/03/03 07:04:29;;;;;;;5.95;4.35;;;;;;;4.92;86.97;94470.44;6278166;22;20449;-81
2024/03/03 07:06:55;;;;;;;8.55;6.15;;;;;;;5.01;86.87;94466.41;6253326;22;20015;-82
2024/03/03 07:09:23;;;;;;;10.40;6.57;;;;;;;5.32;85.98;94467.75;6278794;22;20456;-81
2024/03/03 07:11:52;;;;;;;8.82;5.65;;;;;;;5.02;86.53;94468.91;6279385;22;20078;-82
2024/03/03 07:14:18;;;;;;;7.63;6.32;;;;;;;5.23;86.58;94461.47;6227473;22;20090;-82
2024/03/03 07:16:43;;;;;;;14.73;9.75;;;;;;;4.95;86.48;94433.38;6227909;22;20077;-81
2024/03/03 07:19:09;;;;;;;12.40;7.43;;;;;;;5.23;86.07;94473.53;6253368;22;20007;-82
2024/03/03 07:21:34;;;;;;;10.77;6.32;;;;;;;5.53;84.75;94461.16;6278877;22;20107;-81
2024/03/03 07:23:59;;;;;;;9.60;6.10;;;;;;;5.71;83.87;94469.38;6278735;22;20008;-82
2024/03/03 07:26:25;;;;;;;10.65;8.00;;;;;;;5.83;83.88;94478.84;6253326;22;20000;-82
2024/03/03 07:28:51;;;;;;;10.95;7.82;;;;;;;6.06;83.61;94479.00;6278543;22;20015;-82
2024/03/03 07:31:17;;;;;;;9.48;7.28;;;;;;;6.15;82.13;94480.94;6278828;22;20000;-82
2024/03/03 07:33:42;;;;;;;9.52;6.28;;;;;;;6.25;82.33;94484.53;6277667;22;20448;-82
2024/03/03 07:36:07;;;;;;;9.48;6.75;;;;;;;5.87;82.99;94452.84;6276442;22;20004;-83
2024/03/03 07:38:33;;;;;;;9.32;6.55;;;;;;;6.24;81.79;94493.19;6250524;22;20003;-82
2024/03/03 07:40:59;;;;;;;10.93;6.63;;;;;;;5.96;82.58;94485.72;6251499;22;20003;-81
2024/03/03 07:43:25;;;;;;;10.93;7.32;;;;;;;6.15;82.41;94493.00;6252293;22;20003;-82
2024/03/03 07:45:50;;;;;;;11.07;7.10;;;;;;;6.21;82.09;94498.59;6253142;22;20078;-82
2024/03/03 07:48:16;;;;;;;12.52;8.10;;;;;;;6.36;81.29;94493.25;6305693;22;20460;-83
2024/03/03 07:50:41;;;;;;;12.07;7.72;;;;;;;6.29;81.43;94489.47;6227608;22;20011;-82
2024/03/03 07:53:07;;;;;;;13.60;8.50;;;;;;;6.36;81.86;94491.50;6252683;22;20003;-82
2024/03/03 07:55:32;;;;;;;13.98;8.38;;;;;;;6.34;81.35;94498.53;6252456;22;20011;-83
2024/03/03 07:57:58;;;;;;;12.80;8.00;;;;;;;6.38;81.92;94499.13;6278360;22;20004;-82
2024/03/03 08:00:23;;;;;;;12.25;7.57;;;;;;;6.47;80.90;94483.00;6252413;22;20326;-82
2024/03/03 08:02:48;;;;;;;14.07;9.15;;;;;;;6.55;80.98;94491.00;6252891;22;20048;-83
2024/03/03 08:05:14;;;;;;;16.67;10.85;;;;;;;6.45;81.13;94487.44;6252322;22;20457;-83
2024/03/03 08:07:39;;;;;;;24.17;12.52;;;;;;;6.16;83.02;94490.34;6252586;22;20117;-83
2024/03/03 08:10:05;;;;;;;20.15;11.23;;;;;;;6.19;83.50;94486.72;6227227;22;20011;-83
2024/03/03 08:12:31;;;;;;;25.90;12.98;;;;;;;6.34;83.34;94482.22;6252490;22;20424;-80
2024/03/03 08:14:56;;;;;;;21.65;12.50;;;;;;;6.60;82.50;94495.81;6277807;22;20011;-81
2024/03/03 08:17:22;;;;;;;26.02;16.73;;;;;;;6.45;83.86;94496.00;6252488;22;20007;-83
2024/03/03 08:19:47;;;;;;;28.33;16.45;;;;;;;6.16;84.73;94474.03;6305371;22;20347;-81
2024/03/03 08:22:13;;;;;;;31.38;18.38;;;;;;;6.39;84.73;94490.47;6305303;22;20010;-80
2024/03/03 08:24:40;;;;;;;77.05;38.22;;;;;;;6.52;84.62;94487.81;6252525;22;20014;-83
2024/03/03 08:27:05;;;;;;;71.53;33.60;;;;;;;6.30;85.30;94493.72;6277794;22;20003;-81
2024/03/03 08:29:31;;;;;;;38.08;20.77;;;;;;;6.21;85.40;94485.69;6226696;22;20053;-83
2024/03/03 08:31:56;;;;;;;50.33;26.15;;;;;;;6.00;86.88;94477.69;6252578;22;20026;-83
2024/03/03 08:34:23;;;;;;;33.72;18.38;;;;;;;6.29;85.83;94471.41;6252415;22;20456;-83
2024/03/03 08:36:50;;;;;;;42.20;21.05;;;;;;;6.40;85.25;94466.28;6227752;22;20086;-83
2024/03/03 08:39:16;;;;;;;45.72;25.45;;;;;;;6.22;86.50;94481.34;6278060;22;20041;-83
2024/03/03 08:41:43;;;;;;;41.45;21.98;;;;;;;5.98;88.07;94468.41;6278202;22;20430;-83
2024/03/03 08:44:09;;;;;;;37.83;21.50;;;;;;;6.21;87.61;94477.09;6252364;22;20018;-83
2024/03/03 08:46:34;;;;;;;40.40;20.35;;;;;;;5.96;88.56;94467.69;6278072;22;20069;-82
2024/03/03 08:49:00;;;;;;;43.60;22.15;;;;;;;5.98;88.99;94484.69;6277382;22;20017;-83
2024/03/03 08:51:27;;;;;;;44.58;25.15;;;;;;;6.12;89.30;94486.31;6304966;22;20057;-82
2024/03/03 08:53:52;;;;;;;46.97;26.05;;;;;;;6.09;89.45;94488.28;6252239;22;20019;-84
2024/03/03 08:56:18;;;;;;;45.50;25.17;;;;;;;6.17;89.11;94483.41;6252221;22;20010;-82
2024/03/03 08:58:43;;;;;;;53.08;26.10;;;;;;;6.14;89.22;94484.47;6251766;22;20011;-83
2024/03/03 09:01:14;;;;;;;41.30;21.38;;;;;;;6.11;89.92;94487.25;6252220;22;20003;-83
2024/03/03 09:03:40;;;;;;;41.43;22.07;;;;;;;6.17;89.88;94475.69;6254245;22;20011;-83
2024/03/03 09:06:05;;;;;;;40.03;20.80;;;;;;;6.34;88.36;94469.31;6252282;22;20064;-83
2024/03/03 09:08:31;;;;;;;51.90;24.80;;;;;;;6.35;89.11;94482.13;6304849;22;20388;-84
2024/03/03 09:11:01;;;;;;;41.17;21.67;;;;;;;6.10;89.54;94488.19;6252716;22;20004;-84
2024/03/03 09:13:27;;;;;;;50.70;25.02;;;;;;;6.23;89.63;94476.06;6254956;22;20007;-83
2024/03/03 09:15:52;;;;;;;58.10;27.77;;;;;;;6.37;89.01;94471.69;6228860;22;20353;-84
2024/03/03 09:18:18;;;;;;;48.28;27.05;;;;;;;6.45;89.08;94479.69;6254050;22;20068;-83
2024/03/03 09:20:43;;;;;;;47.75;24.20;;;;;;;6.33;89.38;94467.69;6253989;22;20011;-83
2024/03/03 09:23:08;;;;;;;41.58;22.65;;;;;;;6.67;88.43;94479.78;6307096;22;19999;-84
2024/03/03 09:25:34;;;;;;;40.50;23.45;;;;;;;6.45;88.94;94477.13;6254374;22;20007;-84
2024/03/03 09:27:59;;;;;;;44.83;25.35;;;;;;;6.58;88.24;94480.47;6279644;22;20008;-83
2024/03/03 09:30:24;;;;;;;43.65;25.98;;;;;;;6.43;88.05;94468.66;6254268;22;20068;-84
2024/03/03 09:32:52;;;;;;;39.40;22.45;;;;;;;6.60;87.82;94478.59;6255165;22;20015;-83
2024/03/03 09:35:17;;;;;;;39.17;20.92;;;;;;;6.54;87.89;94471.28;6280865;22;20064;-82
2024/03/03 09:37:43;;;;;;;41.78;24.02;;;;;;;6.43;88.33;94471.22;6254088;22;20086;-82
2024/03/03 09:40:16;;;;;;;42.72;22.35;;;;;;;6.55;87.96;94480.69;6254460;22;20065;-84
2024/03/03 09:42:45;;;;;;;41.03;22.95;;;;;;;6.55;87.97;94485.03;6280506;22;20089;-81
2024/03/03 09:45:12;;;;;;;37.05;22.02;;;;;;;6.64;88.13;94479.19;6254095;22;20007;-83
2024/03/03 09:47:37;;;;;;;38.00;21.98;;;;;;;6.74;87.27;94469.00;6228920;22;20022;-80
2024/03/03 09:50:03;;;;;;;40.35;22.42;;;;;;;6.45;88.42;94451.31;6228656;22;20011;-76
2024/03/03 09:52:28;;;;;;;45.47;23.92;;;;;;;6.68;88.70;94476.25;6279924;22;20007;-77
2024/03/03 09:54:54;;;;;;;37.67;22.30;;;;;;;6.61;88.87;94480.25;6253562;22;20015;-77
2024/03/03 09:57:19;;;;;;;38.38;21.50;;;;;;;6.63;88.10;94474.94;6253976;22;20030;-80
2024/03/03 09:59:45;;;;;;;55.60;30.60;;;;;;;6.99;87.71;94480.94;6253898;22;20053;-78
2024/03/03 10:02:15;;;;;;;49.15;25.77;;;;;;;7.26;86.21;94480.66;6253627;22;20007;-78
2024/03/03 10:04:45;;;;;;;32.97;18.67;;;;;;;7.29;83.97;94475.25;6229219;22;20046;-81
2024/03/03 10:07:11;;;;;;;39.10;21.55;;;;;;;6.97;86.21;94439.75;6229320;22;20011;-82
2024/03/03 10:09:37;;;;;;;38.22;20.95;;;;;;;6.93;86.38;94446.06;6253798;22;20017;-83
2024/03/03 10:12:02;;;;;;;39.15;21.17;;;;;;;7.25;86.10;94456.59;6253794;22;20011;-80
2024/03/03 10:14:28;;;;;;;37.88;22.13;;;;;;;7.42;85.89;94457.88;6279137;22;20003;-79
2024/03/03 10:16:53;;;;;;;33.50;20.20;;;;;;;7.57;85.16;94456.72;6279273;22;20433;-79
2024/03/03 10:19:19;;;;;;;44.35;25.10;;;;;;;7.35;84.62;94452.38;6306488;22;20003;-78
2024/03/03 10:21:44;;;;;;;42.90;23.10;;;;;;;7.28;84.79;94453.75;6279159;22;20057;-82
2024/03/03 10:24:25;;;;;;;37.22;21.02;;;;;;;7.46;84.39;94456.69;6253493;22;20014;-79
2024/03/03 10:26:55;;;;;;;32.28;20.65;;;;;;;7.78;83.62;94433.56;6253528;22;20011;-77
2024/03/03 10:29:21;;;;;;;34.10;20.15;;;;;;;8.15;81.45;94443.59;6254949;22;20003;-78
2024/03/03 10:31:47;;;;;;;35.67;20.42;;;;;;;8.20;81.22;94445.84;6253499;22;20285;-77
2024/03/03 10:34:14;;;;;;;33.10;19.25;;;;;;;8.38;80.93;94435.78;6279061;22;20009;-77
2024/03/03 10:36:40;;;;;;;33.25;20.35;;;;;;;8.20;81.82;94451.00;6228721;22;20011;-77
2024/03/03 10:39:09;;;;;;;33.10;20.20;;;;;;;8.25;82.75;94438.53;6278805;22;20011;-80
2024/03/03 10:41:35;;;;;;;31.90;20.40;;;;;;;8.20;81.36;94438.88;6254032;22;20011;-78
2024/03/03 10:44:01;;;;;;;35.20;20.52;;;;;;;8.11;81.44;94397.38;6253264;22;20454;-79
2024/03/03 10:46:27;;;;;;;35.58;20.63;;;;;;;8.58;81.39;94422.09;6279032;22;20467;-78
2024/03/03 10:48:55;;;;;;;38.33;24.35;;;;;;;8.30;81.12;94418.25;6253430;22;20004;-80
2024/03/03 10:51:20;;;;;;;37.28;21.95;;;;;;;8.13;81.52;94404.06;6228523;22;20031;-83
2024/03/03 10:53:53;;;;;;;35.65;21.23;;;;;;;8.17;82.09;94415.03;6253683;22;20008;-83
2024/03/03 10:56:19;;;;;;;38.78;23.08;;;;;;;8.58;79.64;94395.34;6253706;22;20018;-84
2024/03/03 10:58:45;;;;;;;32.67;20.70;;;;;;;8.65;78.34;94393.91;6253865;22;20003;-81
2024/03/03 11:01:11;;;;;;;30.38;17.77;;;;;;;8.81;78.22;94396.09;6253404;22;20359;-83
2024/03/03 11:03:37;;;;;;;27.48;17.98;;;;;;;8.78;78.34;94393.75;6279423;22;20054;-84
2024/03/03 11:06:03;;;;;;;35.95;19.95;;;;;;;8.54;79.73;94391.38;6253319;22;20026;-83
2024/03/03 11:08:28;;;;;;;31.27;19.83;;;;;;;8.40;80.12;94390.72;6253714;22;19999;-84
2024/03/03 11:10:57;;;;;;;35.50;20.50;;;;;;;7.98;81.56;94390.59;6278499;22;20014;-84
2024/03/03 11:13:22;;;;;;;31.38;20.52;;;;;;;7.94;81.96;94375.44;6279358;22;20003;-86
2024/03/03 11:15:48;;;;;;;28.67;19.00;;;;;;;8.09;81.72;94371.66;6252923;22;20007;-86
2024/03/03 11:18:17;;;;;;;33.03;19.35;;;;;;;8.01;82.37;94372.25;6253873;22;20003;-86
2024/03/03 11:20:44;;;;;;;33.47;19.38;;;;;;;8.16;81.98;94366.78;6254045;22;20049;-86
2024/03/03 11:23:18;;;;;;;29.85;19.02;;;;;;;7.87;83.04;94375.13;6253358;22;20008;-86
2024/03/03 11:26:07;;;;;;;30.08;18.35;;;;;;;8.48;80.87;94374.59;6305897;22;20007;-83